Bramhall, United Kingdom
Current Conditions -  °F | °C
As of 10:50 AM on Friday 19 Dec 2014 (Local Time) from EGCC Reporting Station
Rain Showers Rain Showers  
Wind Chill: 36°   Ceiling: Unl
Heat Index: 45°   Visibility: 6mi
Dew Point: 37°   Wind: 21mph
Humidity: 76%   Direction: 280°W
Pressure: 29.88"   Gusts: NA
Location:  53.36°N, 2.16°W
Report Text: EGCC 191050Z 28018KT 240V300 9999 -SHRA FEW022 SCT032TCU 07/03 Q1012 NOSIG
Loading
Personal Weather Stations






























Interactive Weather Map New forecast layout! Learn more

10-Day Weather Forecast

Advertisements
Track Severe Weather on mobile